Decoded Metar for UKWW (VINNITSA in UKRAINE) (IATA:N/A) | Meteo·Mobile Aviation Weather
aviador You're here:

UKWW Decoded Metar

VINNITSA in UKRAINE
Report Time2019-07-22 15:30:00
UTC Time2019-07-22 15:49:05
Flight Rules mvfr MVFR
Wind320° at 8 kt
W.Decomp.*RWY 31: 7.9 kt HW 1.0 kt RCW
Visibility9999 m
Phenomena:Light Thuderstorm Rain
Clouds:Scattered 005 Hf
Few CB 030 Hf
Expected CloudBase > 2,400 ft AGL from Temp-Dew spread
Ceiling1,500 ft
Temp22°C (ISA +9)
Dew Point16°C (69% RH)
AAT21.1°C
QNH1017 hPa
Density Alt2,106 ft
Elevation960 ft
Report Wrong Elevation
Raw Report
METAR UKWW 221530Z 32004MPS 9999 FEW030CB 22/16 Q1017
TEMPO 2100 -TSRA SCT005 BKN015CB=

Extra information for UKWW:More info

Social comments